New Salem, PA (15468)

6:07 AM EDT on July 31, 2016 (GMT -0400)
Uniontown | | Change Station
Active Advisory: Special Statement

Elev 1102 ft 39.90 °N, 79.73 °W | Updated 6 seconds ago

Clear
Clear
65.5 °F
Feels Like 65.5 °F
N
0.0
Wind Variable Wind from NE
Gusts 0.0 mph

Today
High -- | Low -- °F
--% Chance of Precip.
Yesterday
High -- | Low -- °F
Precip. -- in
Pressure 29.99 in
Visibility 6.0 miles
Clouds Clear
Dew Point 65 °F
Humidity 99%
Rainfall 0.00 in
Snow Depth Not available.
6:17 AM 8:33 PM
Waning Crescent, 7% visible
METAR KMGW 310953Z AUTO 00000KT 6SM BR CLR 19/18 A3001 RMK AO2 SLP155 T01940183
Pressure 29.99 in
Visibility 6.0 miles
Clouds Clear
Dew Point 65 °F
Humidity 99%
Rainfall 0.00 in
Snow Depth Not available.
6:17 AM 8:33 PM
Waning Crescent, 7% visible
METAR KMGW 310953Z AUTO 00000KT 6SM BR CLR 19/18 A3001 RMK AO2 SLP155 T01940183

10-Day Weather Forecast

Almanac

Astronomy

Jul. 31, 2016 Rise Set
Actual Time
Civil Twilight
Nautical Twilight
Astronomical Twilight
Moon
Length of Visible Light
Length of Day
Tomorrow will be .
, % of the Moon is Illuminated

Today's Extremes

State Highs State Lows

Community

WunderPhotos

Upload Photos

1,928,778 photos uploaded!

WunderBlog® & News

Nearby

Air Quality

  Air Quality AQ Index Pollutant
Not available.

Snow Depth

Station Depth Elevation

Earthquake Activity

City Distance Mag. Time & Date
Minimum magnitude displayed is 2.5.

Coastal Water Temperatures

Place Temperature

Stations

Nearby Weather Stations

Station Location Temp. Windchill Dew Point Humidity Wind Precip. Elev Updated Type
                   

Watches & Warnings

Special Statement
Issued: 5:59 AM EDT Jul. 31, 2016 – National Weather Service

... Areas of fog through mid morning...

Fog will persist through mid morning across the region with
localized areas of dense fog reducing visibilities to below a
quarter of a mile at times.

Motorists are advised to use extra caution and slow down if you
encounter dense fog.



559 am EDT sun Jul 31 2016

... Areas of fog through mid morning...

Fog will persist through mid morning across the region with
localized areas of dense fog reducing visibilities to below a
quarter of a mile at times.

Motorists are advised to use extra caution and slow down if you
encounter dense fog.


559 am EDT sun Jul 31 2016

... Areas of fog through mid morning...

Fog will persist through mid morning across the region with
localized areas of dense fog reducing visibilities to below a
quarter of a mile at times.

Motorists are advised to use extra caution and slow down if you
encounter dense fog.